Time;durP1;ratioP1;P1;durP2;ratioP2;P2;SDS_P1;SDS_P2;PMS_P1;PMS_P2;Temp;Humidity;BMP_temperature;BMP_pressure;BME280_temperature;BME280_humidity;BME280_pressure;Samples;Min_cycle;Max_cycle;Signal;HPM_P1;HPM_P2
2022/01/04 00:01:00;;;;;;;;;11.00;7.50;;;;;;;;5161492;27;11571;-73
2022/01/04 00:03:25;;;;;;;;;9.25;6.75;;;;;;;;5161003;27;21365;-74
2022/01/04 00:05:50;;;;;;;;;12.25;8.75;;;;;;;;5160671;27;22174;-74
2022/01/04 00:08:16;;;;;;;;;12.75;9.50;;;;;;;;5160692;27;21560;-73
2022/01/04 00:10:41;;;;;;;;;10.25;9.25;;;;;;;;5160537;27;10465;-73
2022/01/04 00:15:47;;;;;;;;;13.25;9.75;;;;;;;;5160497;27;10430;-74
2022/01/04 00:18:12;;;;;;;;;8.50;7.00;;;;;;;;5162480;27;11591;-74
2022/01/04 00:20:38;;;;;;;;;11.50;9.25;;;;;;;;5163903;27;21306;-72
2022/01/04 00:23:03;;;;;;;;;10.75;8.50;;;;;;;;5164047;27;21538;-75
2022/01/04 00:25:28;;;;;;;;;10.75;7.00;;;;;;;;5164150;27;10369;-73
2022/01/04 00:27:54;;;;;;;;;10.00;8.00;;;;;;;;5164669;27;9540;-74
2022/01/04 00:30:19;;;;;;;;;5.75;5.75;;;;;;;;5165036;27;10462;-73
2022/01/04 00:32:44;;;;;;;;;8.75;8.00;;;;;;;;5164207;27;21323;-74
2022/01/04 00:35:10;;;;;;;;;6.25;6.25;;;;;;;;5164689;27;11327;-78
2022/01/04 00:37:35;;;;;;;;;8.50;8.50;;;;;;;;5163949;27;11299;-76
2022/01/04 00:40:00;;;;;;;;;6.00;6.00;;;;;;;;5163934;27;11325;-74
2022/01/04 00:42:26;;;;;;;;;9.75;6.25;;;;;;;;5164007;27;13028;-76
2022/01/04 00:44:51;;;;;;;;;7.00;5.25;;;;;;;;5163218;27;11512;-72
2022/01/04 00:47:19;;;;;;;;;11.25;6.00;;;;;;;;5160120;27;12566;-72
2022/01/04 00:49:45;;;;;;;;;11.00;9.75;;;;;;;;5164006;27;22525;-72
2022/01/04 00:52:16;;;;;;;;;5.00;3.00;;;;;;;;5164234;27;11464;-72
2022/01/04 00:54:41;;;;;;;;;9.50;7.00;;;;;;;;5161860;27;21448;-71
2022/01/04 00:57:06;;;;;;;;;6.75;6.25;;;;;;;;5163562;27;11584;-72
2022/01/04 00:59:32;;;;;;;;;9.50;8.50;;;;;;;;5163940;27;11282;-72
2022/01/04 01:01:57;;;;;;;;;8.50;6.00;;;;;;;;5163862;27;12458;-72
2022/01/04 01:04:23;;;;;;;;;2.75;2.75;;;;;;;;5163602;27;11273;-72
2022/01/04 01:06:48;;;;;;;;;5.75;5.75;;;;;;;;5164378;27;11366;-73
2022/01/04 01:09:14;;;;;;;;;4.00;4.00;;;;;;;;5164170;27;11477;-72
2022/01/04 01:11:39;;;;;;;;;5.75;5.00;;;;;;;;5164212;27;11452;-72
2022/01/04 01:14:04;;;;;;;;;9.50;6.00;;;;;;;;5164147;27;11626;-72
2022/01/04 01:16:29;;;;;;;;;5.00;4.00;;;;;;;;5162523;27;10792;-72
2022/01/04 01:18:55;;;;;;;;;6.00;6.00;;;;;;;;5163940;27;11462;-72
2022/01/04 01:21:20;;;;;;;;;5.50;5.50;;;;;;;;5164266;27;8838;-72
2022/01/04 01:23:45;;;;;;;;;5.50;5.00;;;;;;;;5163857;27;11536;-72
2022/01/04 01:26:11;;;;;;;;;5.00;5.00;;;;;;;;5163757;27;8806;-72
2022/01/04 01:28:37;;;;;;;;;6.00;4.50;;;;;;;;5163573;27;8804;-72
2022/01/04 01:31:02;;;;;;;;;6.50;5.50;;;;;;;;5163405;27;11302;-71
2022/01/04 01:33:27;;;;;;;;;5.00;5.00;;;;;;;;5163538;27;9483;-71
2022/01/04 01:35:56;;;;;;;;;7.50;5.25;;;;;;;;5162983;27;11292;-71
2022/01/04 01:38:21;;;;;;;;;6.00;6.00;;;;;;;;5163565;27;11432;-72
2022/01/04 01:40:47;;;;;;;;;7.00;4.00;;;;;;;;5162879;27;11507;-72
2022/01/04 01:43:13;;;;;;;;;3.00;3.00;;;;;;;;5163550;27;9481;-71
2022/01/04 01:45:39;;;;;;;;;4.25;4.00;;;;;;;;5163879;27;11417;-72
2022/01/04 01:48:04;;;;;;;;;5.00;5.00;;;;;;;;5163585;27;11679;-72
2022/01/04 01:50:30;;;;;;;;;7.00;3.00;;;;;;;;5163284;27;10270;-72
2022/01/04 01:52:55;;;;;;;;;11.00;5.75;;;;;;;;5163329;27;8872;-72
2022/01/04 01:55:21;;;;;;;;;6.25;5.25;;;;;;;;5162523;27;21367;-72
2022/01/04 01:57:47;;;;;;;;;3.50;3.50;;;;;;;;5160723;27;24813;-72
2022/01/04 02:00:14;;;;;;;;;7.00;7.00;;;;;;;;5163430;27;11617;-72
2022/01/04 02:02:40;;;;;;;;;5.50;5.25;;;;;;;;5162765;27;11422;-72
2022/01/04 02:05:06;;;;;;;;;5.25;5.25;;;;;;;;5163108;27;11408;-72
2022/01/04 02:07:32;;;;;;;;;5.00;5.00;;;;;;;;5162953;27;8793;-72
2022/01/04 02:10:03;;;;;;;;;8.25;5.25;;;;;;;;5162801;27;8880;-72
2022/01/04 02:12:29;;;;;;;;;9.75;5.50;;;;;;;;5162949;27;11613;-72
2022/01/04 02:14:55;;;;;;;;;8.50;5.50;;;;;;;;5162980;27;11376;-71
2022/01/04 02:17:20;;;;;;;;;3.50;3.50;;;;;;;;5162700;27;11501;-71
2022/01/04 02:19:45;;;;;;;;;6.00;3.50;;;;;;;;5162794;27;8781;-72
2022/01/04 02:22:11;;;;;;;;;5.25;3.00;;;;;;;;5162979;27;9022;-71
2022/01/04 02:24:36;;;;;;;;;9.25;6.00;;;;;;;;5162522;27;11438;-71
2022/01/04 02:27:02;;;;;;;;;7.50;6.00;;;;;;;;5162177;27;8817;-72
2022/01/04 02:29:27;;;;;;;;;5.00;3.00;;;;;;;;5162353;27;9005;-72
2022/01/04 02:31:53;;;;;;;;;9.75;5.00;;;;;;;;5162742;27;10561;-71
2022/01/04 02:34:18;;;;;;;;;8.50;5.25;;;;;;;;5162975;27;10458;-71
2022/01/04 02:36:44;;;;;;;;;8.25;5.75;;;;;;;;5162876;27;11538;-71
2022/01/04 02:39:09;;;;;;;;;7.50;6.00;;;;;;;;5162507;27;8857;-72
2022/01/04 02:41:34;;;;;;;;;9.50;8.50;;;;;;;;5161829;27;11335;-72
2022/01/04 02:43:59;;;;;;;;;9.50;6.00;;;;;;;;5162493;27;11991;-71
2022/01/04 02:46:25;;;;;;;;;11.00;7.00;;;;;;;;5162465;27;8781;-71
2022/01/04 02:48:50;;;;;;;;;11.00;7.00;;;;;;;;5161877;27;22597;-73
2022/01/04 02:51:18;;;;;;;;;9.25;8.00;;;;;;;;5162364;27;8789;-71
2022/01/04 02:53:43;;;;;;;;;7.25;6.75;;;;;;;;5161970;27;22489;-71
2022/01/04 02:56:10;;;;;;;;;8.50;6.75;;;;;;;;5161919;27;11486;-71
2022/01/04 02:58:35;;;;;;;;;6.25;6.25;;;;;;;;5162555;27;8844;-71
2022/01/04 03:01:01;;;;;;;;;10.25;8.00;;;;;;;;5161969;27;11418;-72
2022/01/04 03:03:27;;;;;;;;;9.25;7.00;;;;;;;;5161551;27;21470;-72
2022/01/04 03:05:52;;;;;;;;;10.50;7.00;;;;;;;;5161870;27;21531;-72
2022/01/04 03:08:18;;;;;;;;;8.00;7.00;;;;;;;;5161997;27;16259;-72
2022/01/04 03:10:43;;;;;;;;;5.50;5.50;;;;;;;;5162052;27;16732;-72
2022/01/04 03:13:09;;;;;;;;;10.00;6.75;;;;;;;;5162099;27;11664;-72
2022/01/04 03:15:35;;;;;;;;;8.50;8.50;;;;;;;;5159944;27;23945;-72
2022/01/04 03:18:00;;;;;;;;;10.00;6.50;;;;;;;;5159813;27;22085;-72
2022/01/04 03:20:25;;;;;;;;;7.00;6.00;;;;;;;;5159581;27;21839;-72
2022/01/04 03:22:50;;;;;;;;;6.75;6.75;;;;;;;;5161334;27;22406;-72
2022/01/04 03:25:16;;;;;;;;;5.75;4.50;;;;;;;;5161185;27;11635;-71
2022/01/04 03:27:41;;;;;;;;;7.25;6.25;;;;;;;;5162119;27;12645;-71
2022/01/04 03:30:10;;;;;;;;;7.00;6.00;;;;;;;;5162008;27;11306;-72
2022/01/04 03:32:35;;;;;;;;;7.00;4.50;;;;;;;;5161537;27;8762;-72
2022/01/04 03:35:00;;;;;;;;;6.00;3.25;;;;;;;;5161139;27;11444;-72
2022/01/04 03:37:26;;;;;;;;;7.25;6.00;;;;;;;;5161303;27;11559;-72
2022/01/04 03:39:51;;;;;;;;;5.00;5.00;;;;;;;;5162002;27;11277;-72
2022/01/04 03:42:16;;;;;;;;;3.50;2.75;;;;;;;;5160636;27;11151;-72
2022/01/04 03:44:42;;;;;;;;;5.00;4.75;;;;;;;;5161876;27;11495;-71
2022/01/04 03:47:07;;;;;;;;;4.50;4.00;;;;;;;;5161916;27;10323;-72
2022/01/04 03:49:32;;;;;;;;;3.00;3.00;;;;;;;;5160940;27;11357;-71
2022/01/04 03:51:57;;;;;;;;;7.25;5.75;;;;;;;;5159657;27;12325;-71
2022/01/04 03:54:23;;;;;;;;;6.25;5.00;;;;;;;;5161547;27;11305;-72
2022/01/04 03:56:49;;;;;;;;;3.00;3.00;;;;;;;;5161110;27;11721;-72
2022/01/04 03:59:14;;;;;;;;;5.00;5.00;;;;;;;;5159783;27;11975;-72
2022/01/04 04:01:39;;;;;;;;;8.75;4.00;;;;;;;;5161117;27;8808;-72
2022/01/04 04:04:05;;;;;;;;;4.75;2.50;;;;;;;;5161134;27;10263;-71
2022/01/04 04:06:30;;;;;;;;;2.00;2.00;;;;;;;;5161288;27;11394;-72
2022/01/04 04:08:57;;;;;;;;;8.00;3.25;;;;;;;;5160917;27;11293;-71
2022/01/04 04:11:22;;;;;;;;;4.00;4.00;;;;;;;;5159912;27;13907;-71
2022/01/04 04:13:48;;;;;;;;;4.25;4.25;;;;;;;;5161668;27;11410;-72
2022/01/04 04:16:13;;;;;;;;;2.50;2.00;;;;;;;;5161373;27;8851;-72
2022/01/04 04:18:38;;;;;;;;;5.00;3.00;;;;;;;;5160778;27;11781;-71
2022/01/04 04:21:04;;;;;;;;;5.00;2.00;;;;;;;;5160783;27;10445;-72
2022/01/04 04:23:29;;;;;;;;;5.00;4.25;;;;;;;;5160887;27;8854;-72
2022/01/04 04:25:54;;;;;;;;;1.00;1.00;;;;;;;;5161074;27;8987;-72
2022/01/04 04:28:19;;;;;;;;;4.50;2.50;;;;;;;;5161010;27;12899;-72
2022/01/04 04:30:45;;;;;;;;;12.00;5.25;;;;;;;;5160838;27;11287;-71
2022/01/04 04:33:10;;;;;;;;;1.75;1.75;;;;;;;;5158636;27;22712;-71
2022/01/04 04:35:35;;;;;;;;;9.50;4.75;;;;;;;;5160419;27;21357;-71
2022/01/04 04:38:01;;;;;;;;;5.75;4.00;;;;;;;;5160703;27;10518;-71
2022/01/04 04:40:26;;;;;;;;;8.00;5.75;;;;;;;;5161479;27;11321;-71
2022/01/04 04:42:51;;;;;;;;;4.00;4.00;;;;;;;;5159640;27;11632;-71
2022/01/04 04:45:17;;;;;;;;;4.00;4.00;;;;;;;;5161102;27;11823;-72
2022/01/04 04:47:42;;;;;;;;;6.00;5.00;;;;;;;;5161543;27;8790;-72
2022/01/04 04:50:08;;;;;;;;;5.50;5.00;;;;;;;;5161404;27;9021;-71
2022/01/04 04:52:34;;;;;;;;;8.25;7.75;;;;;;;;5160852;27;10557;-71
2022/01/04 04:54:59;;;;;;;;;8.75;6.25;;;;;;;;5160031;27;11406;-71
2022/01/04 04:57:25;;;;;;;;;9.00;9.00;;;;;;;;5160796;27;9530;-72
2022/01/04 04:59:50;;;;;;;;;8.25;6.00;;;;;;;;5160617;27;11330;-71
2022/01/04 05:02:15;;;;;;;;;7.75;6.00;;;;;;;;5161007;27;10337;-72
2022/01/04 05:04:41;;;;;;;;;9.25;7.25;;;;;;;;5163573;27;8883;-72
2022/01/04 05:07:06;;;;;;;;;8.50;8.25;;;;;;;;5164308;27;11289;-73
2022/01/04 05:09:31;;;;;;;;;7.00;6.00;;;;;;;;5164755;27;10481;-72
2022/01/04 05:11:56;;;;;;;;;8.00;6.00;;;;;;;;5163969;27;11625;-72
2022/01/04 05:14:22;;;;;;;;;9.00;7.25;;;;;;;;5164431;27;8757;-72
2022/01/04 05:16:47;;;;;;;;;8.50;6.00;;;;;;;;5163666;27;11599;-72
2022/01/04 05:19:13;;;;;;;;;8.25;6.00;;;;;;;;5163663;27;11298;-71
2022/01/04 05:21:38;;;;;;;;;7.25;6.25;;;;;;;;5163674;27;8804;-72
2022/01/04 05:24:04;;;;;;;;;8.00;7.00;;;;;;;;5163927;27;11482;-72
2022/01/04 05:26:29;;;;;;;;;7.00;6.00;;;;;;;;5162590;27;11502;-72
2022/01/04 05:28:54;;;;;;;;;8.00;6.75;;;;;;;;5162543;27;10668;-72
2022/01/04 05:31:20;;;;;;;;;10.00;7.75;;;;;;;;5163997;27;12645;-72
2022/01/04 05:33:45;;;;;;;;;8.00;7.00;;;;;;;;5162972;27;21765;-72
2022/01/04 05:36:10;;;;;;;;;9.25;6.25;;;;;;;;5163745;27;21347;-72
2022/01/04 05:38:36;;;;;;;;;11.50;7.00;;;;;;;;5161525;27;13770;-71
2022/01/04 05:41:01;;;;;;;;;4.00;4.00;;;;;;;;5163204;27;21784;-71
2022/01/04 05:43:26;;;;;;;;;10.50;7.25;;;;;;;;5163177;27;21284;-71
2022/01/04 05:45:52;;;;;;;;;5.00;5.00;;;;;;;;5163690;27;21569;-71
2022/01/04 05:48:20;;;;;;;;;7.00;6.00;;;;;;;;5162497;27;22708;-71
2022/01/04 05:50:45;;;;;;;;;7.75;6.00;;;;;;;;5160477;27;8839;-70
2022/01/04 05:53:11;;;;;;;;;5.50;5.50;;;;;;;;5161970;27;11409;-71
2022/01/04 05:55:36;;;;;;;;;6.00;4.00;;;;;;;;5161630;27;12250;-72
2022/01/04 05:58:01;;;;;;;;;5.00;4.00;;;;;;;;5164008;27;11270;-72
2022/01/04 06:00:27;;;;;;;;;8.00;5.00;;;;;;;;5163732;27;8881;-75
2022/01/04 06:02:52;;;;;;;;;8.50;8.50;;;;;;;;5163705;27;9176;-72
2022/01/04 06:05:18;;;;;;;;;8.50;8.00;;;;;;;;5163225;27;10290;-70
2022/01/04 06:07:43;;;;;;;;;7.75;7.75;;;;;;;;5163187;27;9579;-71
2022/01/04 06:10:09;;;;;;;;;7.50;5.50;;;;;;;;5162751;27;11439;-72
2022/01/04 06:15:07;;;;;;;;;8.75;7.25;;;;;;;;5162248;27;11515;-72
2022/01/04 06:17:33;;;;;;;;;9.00;7.25;;;;;;;;5163216;27;12718;-72
2022/01/04 06:19:59;;;;;;;;;11.50;8.50;;;;;;;;5161466;27;12346;-73
2022/01/04 06:22:26;;;;;;;;;10.50;8.00;;;;;;;;5162563;27;21892;-75
2022/01/04 06:24:52;;;;;;;;;8.75;7.75;;;;;;;;5162264;27;11380;-75
2022/01/04 06:27:17;;;;;;;;;6.50;6.00;;;;;;;;5162742;27;22567;-76
2022/01/04 06:29:43;;;;;;;;;11.25;9.00;;;;;;;;5163041;27;11403;-74
2022/01/04 06:32:09;;;;;;;;;11.50;8.00;;;;;;;;5162928;27;22663;-75
2022/01/04 06:34:35;;;;;;;;;9.00;8.75;;;;;;;;5163268;27;10498;-74
2022/01/04 06:37:00;;;;;;;;;7.75;7.00;;;;;;;;5162294;27;21348;-74
2022/01/04 06:39:25;;;;;;;;;8.50;6.50;;;;;;;;5162641;27;11531;-73
2022/01/04 06:41:51;;;;;;;;;8.75;8.25;;;;;;;;5162267;27;11471;-74
2022/01/04 06:44:16;;;;;;;;;8.75;8.00;;;;;;;;5160583;27;10788;-75
2022/01/04 06:46:45;;;;;;;;;12.25;7.50;;;;;;;;5156246;27;8833;-74
2022/01/04 06:49:11;;;;;;;;;10.00;8.25;;;;;;;;5141613;27;21706;-75
2022/01/04 06:51:37;;;;;;;;;8.50;8.00;;;;;;;;5142479;27;11415;-80
2022/01/04 06:54:02;;;;;;;;;10.25;7.25;;;;;;;;5137459;27;21943;-83
2022/01/04 06:56:28;;;;;;;;;11.50;7.75;;;;;;;;5139730;27;21565;-88
2022/01/04 06:58:53;;;;;;;;;7.75;7.00;;;;;;;;5140592;27;10781;-75
2022/01/04 07:01:18;;;;;;;;;10.50;8.50;;;;;;;;5139693;27;21429;-77
2022/01/04 07:03:43;;;;;;;;;6.50;6.50;;;;;;;;5140910;27;21506;-83
2022/01/04 07:06:09;;;;;;;;;8.00;7.00;;;;;;;;5148996;27;21346;-80
2022/01/04 07:08:34;;;;;;;;;6.00;6.00;;;;;;;;5160155;27;11297;-74
2022/01/04 07:10:59;;;;;;;;;12.25;7.00;;;;;;;;5160738;27;9636;-73
2022/01/04 07:13:24;;;;;;;;;8.50;7.00;;;;;;;;5160036;27;22006;-74
2022/01/04 07:15:50;;;;;;;;;9.25;7.25;;;;;;;;5159961;27;16186;-72
2022/01/04 07:18:15;;;;;;;;;11.25;7.50;;;;;;;;5161180;27;11281;-75
2022/01/04 07:20:40;;;;;;;;;10.50;7.00;;;;;;;;5159942;27;21339;-84
2022/01/04 07:23:06;;;;;;;;;10.75;7.50;;;;;;;;5160735;27;10283;-79
2022/01/04 07:25:31;;;;;;;;;8.75;6.00;;;;;;;;5159954;27;8813;-78
2022/01/04 07:27:56;;;;;;;;;8.50;6.00;;;;;;;;5159817;27;21310;-77
2022/01/04 07:30:22;;;;;;;;;7.75;5.00;;;;;;;;5160778;27;9621;-75
2022/01/04 07:32:47;;;;;;;;;7.00;6.50;;;;;;;;5160241;27;11712;-77
2022/01/04 07:35:12;;;;;;;;;8.75;8.00;;;;;;;;5160365;27;10281;-75
2022/01/04 07:37:38;;;;;;;;;8.75;8.00;;;;;;;;5157267;27;11524;-71
2022/01/04 07:40:03;;;;;;;;;7.00;6.25;;;;;;;;5160149;27;8793;-75
2022/01/04 07:42:29;;;;;;;;;8.75;7.00;;;;;;;;5159400;27;12597;-73
2022/01/04 07:44:54;;;;;;;;;9.25;7.00;;;;;;;;5160465;27;11281;-77
2022/01/04 07:47:19;;;;;;;;;10.50;8.50;;;;;;;;5158558;27;9035;-78
2022/01/04 07:49:44;;;;;;;;;8.00;7.00;;;;;;;;5159905;27;21326;-78
2022/01/04 07:52:10;;;;;;;;;8.00;8.00;;;;;;;;5159255;27;21438;-77
2022/01/04 07:54:36;;;;;;;;;7.25;7.25;;;;;;;;5159823;27;8781;-77
2022/01/04 07:57:01;;;;;;;;;9.00;6.50;;;;;;;;5159773;27;11392;-73
2022/01/04 07:59:29;;;;;;;;;7.25;5.00;;;;;;;;5159518;27;11398;-72
2022/01/04 08:01:55;;;;;;;;;11.25;4.00;;;;;;;;5157370;27;11918;-72
2022/01/04 08:04:20;;;;;;;;;7.00;7.00;;;;;;;;5156222;27;21838;-72
2022/01/04 08:06:45;;;;;;;;;7.50;6.75;;;;;;;;5159497;27;22571;-74
2022/01/04 08:09:11;;;;;;;;;6.75;3.00;;;;;;;;5160026;27;10279;-74
2022/01/04 08:11:36;;;;;;;;;7.00;7.00;;;;;;;;5161457;27;11680;-74
2022/01/04 08:14:01;;;;;;;;;7.50;7.00;;;;;;;;5160946;27;10438;-74
2022/01/04 08:16:26;;;;;;;;;9.00;7.75;;;;;;;;5161821;27;8809;-77
2022/01/04 08:18:52;;;;;;;;;8.00;6.75;;;;;;;;5160387;27;13416;-77
2022/01/04 08:21:17;;;;;;;;;8.00;6.50;;;;;;;;5161703;27;8816;-78
2022/01/04 08:23:42;;;;;;;;;8.00;6.00;;;;;;;;5161762;27;8884;-78
2022/01/04 08:26:07;;;;;;;;;9.75;7.50;;;;;;;;5160025;27;8937;-76
2022/01/04 19:28:49;;;;;;;;;17.00;16.25;;;;;;;;5202565;27;78965;-74
2022/01/04 19:31:22;;;;;;;;;15.00;14.00;;;;;;;;5191916;27;23455;-75
2022/01/04 19:36:17;;;;;;;;;15.00;14.75;;;;;;;;5198887;27;11434;-76
2022/01/04 19:38:46;;;;;;;;;12.75;11.75;;;;;;;;5199260;27;10410;-79
2022/01/04 19:41:12;;;;;;;;;14.00;11.75;;;;;;;;5198776;27;11439;-75
2022/01/04 19:43:39;;;;;;;;;13.00;12.00;;;;;;;;5194663;27;11437;-78
2022/01/04 19:46:04;;;;;;;;;15.00;13.00;;;;;;;;5194503;27;11524;-77
2022/01/04 19:48:29;;;;;;;;;14.75;14.00;;;;;;;;5198765;27;11442;-75
2022/01/04 19:50:59;;;;;;;;;13.00;12.00;;;;;;;;5198079;27;10602;-76
2022/01/04 19:53:24;;;;;;;;;15.25;14.75;;;;;;;;5193363;27;10597;-82
2022/01/04 19:55:50;;;;;;;;;18.25;16.00;;;;;;;;5179200;27;13584;-84
2022/01/04 19:58:15;;;;;;;;;15.00;13.50;;;;;;;;5180250;27;13581;-81
2022/01/04 20:00:41;;;;;;;;;14.50;14.50;;;;;;;;5199190;27;12640;-83
2022/01/04 20:03:07;;;;;;;;;11.75;11.75;;;;;;;;5177992;27;12701;-86
2022/01/04 20:05:33;;;;;;;;;13.75;13.00;;;;;;;;5178855;27;13965;-84
2022/01/04 20:07:58;;;;;;;;;14.00;13.25;;;;;;;;5202597;27;11632;-83
2022/01/04 20:10:23;;;;;;;;;13.00;12.00;;;;;;;;5197248;27;11448;-81
2022/01/04 20:12:56;;;;;;;;;17.00;14.75;;;;;;;;5199090;27;11363;-85
2022/01/04 20:15:22;;;;;;;;;17.25;14.00;;;;;;;;5198818;27;11700;-80
2022/01/04 20:17:47;;;;;;;;;15.00;13.00;;;;;;;;5198397;27;11437;-87
2022/01/04 20:20:13;;;;;;;;;18.25;15.50;;;;;;;;5198431;27;11499;-81
2022/01/04 20:22:38;;;;;;;;;12.50;12.00;;;;;;;;5195732;27;11357;-84
2022/01/04 20:25:03;;;;;;;;;13.50;13.50;;;;;;;;5198684;27;11423;-81
2022/01/04 20:27:29;;;;;;;;;14.00;14.00;;;;;;;;5198119;27;11435;-79
2022/01/04 20:29:54;;;;;;;;;13.25;11.00;;;;;;;;5179495;27;13440;-82
2022/01/04 20:32:20;;;;;;;;;17.50;15.00;;;;;;;;5179306;27;11708;-84
2022/01/04 20:34:45;;;;;;;;;17.25;14.00;;;;;;;;5198439;27;10343;-81
2022/01/04 20:37:11;;;;;;;;;14.75;13.75;;;;;;;;5198766;27;9654;-79
2022/01/04 20:39:36;;;;;;;;;19.50;13.50;;;;;;;;5187927;27;11449;-81
2022/01/04 20:42:02;;;;;;;;;14.50;14.50;;;;;;;;5184626;27;11514;-80
2022/01/04 20:44:27;;;;;;;;;16.75;15.25;;;;;;;;5184896;27;8818;-81
2022/01/04 20:46:52;;;;;;;;;16.50;14.25;;;;;;;;5177785;27;11385;-83
2022/01/04 20:49:18;;;;;;;;;14.25;14.25;;;;;;;;5179644;27;9517;-81
2022/01/04 20:51:43;;;;;;;;;15.00;14.00;;;;;;;;5163544;27;10306;-79
2022/01/04 20:54:08;;;;;;;;;16.25;12.75;;;;;;;;5162680;27;11486;-79
2022/01/04 20:56:34;;;;;;;;;13.75;13.00;;;;;;;;5144229;27;13232;-78
2022/01/04 20:58:59;;;;;;;;;14.25;13.25;;;;;;;;5165247;27;11927;-79
2022/01/04 21:01:24;;;;;;;;;15.25;13.25;;;;;;;;5179355;27;11609;-80
2022/01/04 21:03:49;;;;;;;;;13.25;12.75;;;;;;;;5184394;27;8863;-79
2022/01/04 21:06:15;;;;;;;;;13.75;13.75;;;;;;;;5184483;27;10450;-78
2022/01/04 21:08:40;;;;;;;;;18.00;15.25;;;;;;;;5183690;27;9849;-78
2022/01/04 21:11:05;;;;;;;;;19.75;17.50;;;;;;;;5183662;27;10450;-78
2022/01/04 21:13:31;;;;;;;;;18.50;16.50;;;;;;;;5183907;27;11356;-78
2022/01/04 21:15:56;;;;;;;;;22.50;18.00;;;;;;;;5183416;27;10755;-78
2022/01/04 21:18:21;;;;;;;;;20.25;17.50;;;;;;;;5183249;27;13220;-79
2022/01/04 21:20:47;;;;;;;;;17.25;15.00;;;;;;;;5183168;27;11353;-78
2022/01/04 21:23:17;;;;;;;;;16.25;15.50;;;;;;;;5182239;27;13281;-78
2022/01/04 21:25:42;;;;;;;;;17.50;17.50;;;;;;;;5180168;27;12619;-78
2022/01/04 21:28:07;;;;;;;;;20.50;17.50;;;;;;;;5163270;27;11634;-77
2022/01/04 21:30:33;;;;;;;;;20.75;18.50;;;;;;;;5163867;27;8799;-84
2022/01/04 21:32:59;;;;;;;;;18.00;15.00;;;;;;;;5182291;27;9526;-82
2022/01/04 21:35:24;;;;;;;;;17.00;15.50;;;;;;;;5180786;27;13223;-74
2022/01/04 21:37:50;;;;;;;;;18.75;17.50;;;;;;;;5167134;27;12827;-81
2022/01/04 21:40:15;;;;;;;;;31.00;29.50;;;;;;;;5165402;27;10679;-73
2022/01/04 21:42:41;;;;;;;;;25.25;23.75;;;;;;;;5167412;27;12247;-71
2022/01/04 21:45:06;;;;;;;;;25.00;21.75;;;;;;;;5152444;27;15634;-70
2022/01/04 21:47:32;;;;;;;;;19.50;16.75;;;;;;;;5162076;27;9838;-73
2022/01/04 21:49:58;;;;;;;;;23.00;19.00;;;;;;;;5161009;27;12492;-73
2022/01/04 21:52:23;;;;;;;;;22.50;21.50;;;;;;;;5161866;27;13281;-75
2022/01/04 21:54:49;;;;;;;;;24.75;22.50;;;;;;;;5169770;27;12427;-76
2022/01/04 21:57:14;;;;;;;;;14.50;14.50;;;;;;;;5183453;27;11516;-73
2022/01/04 21:59:40;;;;;;;;;8.25;8.25;;;;;;;;5164232;27;14199;-73
2022/01/04 22:02:05;;;;;;;;;7.00;6.00;;;;;;;;5182897;27;22171;-74
2022/01/04 22:04:30;;;;;;;;;8.00;7.00;;;;;;;;5183487;27;11312;-76
2022/01/04 22:06:58;;;;;;;;;9.75;8.75;;;;;;;;5183537;27;8803;-76
2022/01/04 22:09:23;;;;;;;;;12.25;11.50;;;;;;;;5182313;27;11535;-76
2022/01/04 22:11:48;;;;;;;;;10.75;10.75;;;;;;;;5182457;27;22915;-76
2022/01/04 22:14:16;;;;;;;;;11.00;11.00;;;;;;;;5182669;27;12538;-76
2022/01/04 22:16:42;;;;;;;;;1.00;0.00;;;;;;;;5183642;27;11464;-75
2022/01/04 22:19:07;;;;;;;;;9.25;9.25;;;;;;;;5182629;27;22989;-77
2022/01/04 22:21:33;;;;;;;;;8.25;8.00;;;;;;;;5183099;27;11538;-76
2022/01/04 22:23:58;;;;;;;;;10.00;7.50;;;;;;;;5182638;27;11340;-75
2022/01/04 22:26:24;;;;;;;;;10.25;7.75;;;;;;;;5162837;27;23175;-76
2022/01/04 22:28:49;;;;;;;;;7.00;7.00;;;;;;;;5164768;27;8804;-76
2022/01/04 22:31:14;;;;;;;;;9.75;8.00;;;;;;;;5182842;27;21326;-76
2022/01/04 22:33:40;;;;;;;;;8.25;6.75;;;;;;;;5182703;27;10352;-77
2022/01/04 22:36:05;;;;;;;;;10.00;9.50;;;;;;;;5183268;27;11274;-77
2022/01/04 22:38:30;;;;;;;;;7.75;6.00;;;;;;;;5182161;27;21573;-82
2022/01/04 22:40:56;;;;;;;;;2.75;2.50;;;;;;;;5182501;27;21360;-76
2022/01/04 22:43:21;;;;;;;;;6.00;4.50;;;;;;;;5164012;27;14775;-79
2022/01/04 22:45:46;;;;;;;;;6.00;5.00;;;;;;;;5181693;27;10279;-78
2022/01/04 22:48:12;;;;;;;;;7.00;6.25;;;;;;;;5182736;27;9850;-77
2022/01/04 22:50:37;;;;;;;;;6.00;6.00;;;;;;;;5183327;27;11285;-76
2022/01/04 22:53:03;;;;;;;;;4.00;3.50;;;;;;;;5182566;27;11857;-77
2022/01/04 22:55:28;;;;;;;;;4.50;4.00;;;;;;;;5181508;27;12618;-77
2022/01/04 22:57:53;;;;;;;;;6.00;3.00;;;;;;;;5182661;27;10336;-77
2022/01/04 23:00:19;;;;;;;;;3.00;3.00;;;;;;;;5182712;27;10442;-75
2022/01/04 23:02:44;;;;;;;;;4.50;3.50;;;;;;;;5182636;27;8799;-77
2022/01/04 23:05:10;;;;;;;;;5.25;4.50;;;;;;;;5163879;27;11340;-76
2022/01/04 23:07:36;;;;;;;;;4.50;4.50;;;;;;;;5181856;27;10276;-76
2022/01/04 23:10:01;;;;;;;;;6.50;5.00;;;;;;;;5183054;27;10050;-76
2022/01/04 23:12:26;;;;;;;;;3.50;3.00;;;;;;;;5182900;27;11980;-76
2022/01/04 23:14:52;;;;;;;;;4.00;3.00;;;;;;;;5182635;27;8785;-76
2022/01/04 23:17:18;;;;;;;;;7.25;5.00;;;;;;;;5183199;27;8839;-76
2022/01/04 23:19:43;;;;;;;;;6.50;5.00;;;;;;;;5182311;27;10335;-74
2022/01/04 23:22:09;;;;;;;;;4.50;4.50;;;;;;;;5182431;27;11093;-76
2022/01/04 23:24:34;;;;;;;;;3.75;3.75;;;;;;;;5163075;27;13026;-76
2022/01/04 23:26:59;;;;;;;;;3.75;3.75;;;;;;;;5181769;27;12411;-75
2022/01/04 23:29:25;;;;;;;;;3.00;3.00;;;;;;;;5182126;27;8847;-76
2022/01/04 23:31:50;;;;;;;;;4.00;4.00;;;;;;;;5181855;27;9735;-76
2022/01/04 23:34:15;;;;;;;;;8.25;3.25;;;;;;;;5181849;27;9144;-76
2022/01/04 23:36:41;;;;;;;;;3.75;3.75;;;;;;;;5182653;27;11456;-74
2022/01/04 23:39:06;;;;;;;;;4.50;3.00;;;;;;;;5182485;27;10298;-73
2022/01/04 23:41:31;;;;;;;;;3.00;3.00;;;;;;;;5182798;27;11290;-74
2022/01/04 23:43:57;;;;;;;;;5.00;3.25;;;;;;;;5182268;27;10015;-75
2022/01/04 23:46:22;;;;;;;;;4.25;3.00;;;;;;;;5182234;27;11496;-74
2022/01/04 23:48:47;;;;;;;;;6.00;3.50;;;;;;;;5182550;27;11898;-76
2022/01/04 23:51:12;;;;;;;;;3.50;3.00;;;;;;;;5182177;27;11547;-76
2022/01/04 23:53:38;;;;;;;;;4.25;3.00;;;;;;;;5162922;27;13844;-76
2022/01/04 23:56:03;;;;;;;;;5.00;5.00;;;;;;;;5182203;27;9085;-76
2022/01/04 23:58:28;;;;;;;;;3.00;3.00;;;;;;;;5181654;27;10488;-76
